sensor_id;sensor_type;location;lat;lon;timestamp;P1;durP1;ratioP1;P2;durP2;ratioP2
7961;SDS011;4026;43.652;24.906;2022-07-12T14:57:47;4.45;;;1.80;;
7961;SDS011;4026;43.652;24.906;2022-07-12T15:00:14;3.97;;;1.60;;
7961;SDS011;4026;43.652;24.906;2022-07-12T15:02:40;3.40;;;1.50;;
7961;SDS011;4026;43.652;24.906;2022-07-12T15:05:07;3.47;;;1.70;;
7961;SDS011;4026;43.652;24.906;2022-07-12T15:07:34;7.15;;;1.83;;
7961;SDS011;4026;43.652;24.906;2022-07-12T15:10:01;2.50;;;1.60;;
7961;SDS011;4026;43.652;24.906;2022-07-12T15:12:29;2.22;;;1.60;;
7961;SDS011;4026;43.652;24.906;2022-07-12T15:14:58;4.43;;;1.60;;
7961;SDS011;4026;43.652;24.906;2022-07-12T15:17:27;4.03;;;1.70;;
7961;SDS011;4026;43.652;24.906;2022-07-12T15:19:53;3.60;;;1.60;;
7961;SDS011;4026;43.652;24.906;2022-07-12T15:22:20;3.42;;;1.67;;
7961;SDS011;4026;43.652;24.906;2022-07-12T15:24:47;3.20;;;1.90;;
7961;SDS011;4026;43.652;24.906;2022-07-12T15:27:14;5.28;;;1.80;;
7961;SDS011;4026;43.652;24.906;2022-07-12T15:29:40;3.08;;;1.60;;
7961;SDS011;4026;43.652;24.906;2022-07-12T15:32:09;6.65;;;2.00;;
7961;SDS011;4026;43.652;24.906;2022-07-12T15:34:37;6.65;;;1.85;;
7961;SDS011;4026;43.652;24.906;2022-07-12T15:37:04;2.67;;;1.35;;
7961;SDS011;4026;43.652;24.906;2022-07-12T15:39:31;5.43;;;1.80;;
7961;SDS011;4026;43.652;24.906;2022-07-12T15:41:57;5.22;;;1.85;;
7961;SDS011;4026;43.652;24.906;2022-07-12T15:44:24;4.35;;;2.05;;
7961;SDS011;4026;43.652;24.906;2022-07-12T15:46:53;5.90;;;1.63;;
7961;SDS011;4026;43.652;24.906;2022-07-12T15:49:21;3.47;;;1.38;;
7961;SDS011;4026;43.652;24.906;2022-07-12T15:51:48;3.30;;;1.50;;
7961;SDS011;4026;43.652;24.906;2022-07-12T15:54:32;3.40;;;1.70;;
7961;SDS011;4026;43.652;24.906;2022-07-12T15:56:59;4.22;;;1.90;;
7961;SDS011;4026;43.652;24.906;2022-07-12T15:59:26;5.95;;;1.80;;
7961;SDS011;4026;43.652;24.906;2022-07-12T16:01:53;5.07;;;1.73;;
7961;SDS011;4026;43.652;24.906;2022-07-12T16:04:21;6.47;;;1.88;;
7961;SDS011;4026;43.652;24.906;2022-07-12T16:06:48;4.75;;;2.00;;
7961;SDS011;4026;43.652;24.906;2022-07-12T16:09:16;5.93;;;1.67;;
7961;SDS011;4026;43.652;24.906;2022-07-12T16:11:43;2.40;;;1.27;;
7961;SDS011;4026;43.652;24.906;2022-07-12T16:14:10;3.97;;;1.70;;
7961;SDS011;4026;43.652;24.906;2022-07-12T16:16:37;5.15;;;2.08;;
7961;SDS011;4026;43.652;24.906;2022-07-12T16:19:04;3.20;;;1.65;;
7961;SDS011;4026;43.652;24.906;2022-07-12T16:21:32;2.55;;;1.45;;
7961;SDS011;4026;43.652;24.906;2022-07-12T16:23:59;4.00;;;1.80;;
7961;SDS011;4026;43.652;24.906;2022-07-12T16:26:26;2.03;;;1.38;;
7961;SDS011;4026;43.652;24.906;2022-07-12T16:28:52;2.50;;;1.90;;
7961;SDS011;4026;43.652;24.906;2022-07-12T16:31:19;4.13;;;2.00;;
7961;SDS011;4026;43.652;24.906;2022-07-12T16:33:46;4.13;;;2.45;;
7961;SDS011;4026;43.652;24.906;2022-07-12T16:36:13;4.80;;;2.20;;
7961;SDS011;4026;43.652;24.906;2022-07-12T16:38:41;3.35;;;2.10;;
7961;SDS011;4026;43.652;24.906;2022-07-12T16:41:09;2.25;;;1.70;;
7961;SDS011;4026;43.652;24.906;2022-07-12T16:43:35;2.58;;;1.50;;
7961;SDS011;4026;43.652;24.906;2022-07-12T16:46:02;2.95;;;1.63;;
7961;SDS011;4026;43.652;24.906;2022-07-12T16:48:29;3.03;;;1.70;;
7961;SDS011;4026;43.652;24.906;2022-07-12T16:50:56;5.82;;;2.28;;
7961;SDS011;4026;43.652;24.906;2022-07-12T16:53:42;8.30;;;2.17;;
7961;SDS011;4026;43.652;24.906;2022-07-12T16:56:10;3.85;;;1.92;;
7961;SDS011;4026;43.652;24.906;2022-07-12T16:58:39;6.13;;;2.13;;
7961;SDS011;4026;43.652;24.906;2022-07-12T17:01:07;4.03;;;1.90;;
7961;SDS011;4026;43.652;24.906;2022-07-12T17:03:34;15.35;;;2.47;;
7961;SDS011;4026;43.652;24.906;2022-07-12T17:06:01;4.05;;;1.45;;
7961;SDS011;4026;43.652;24.906;2022-07-12T17:08:28;3.38;;;1.40;;
7961;SDS011;4026;43.652;24.906;2022-07-12T17:10:56;28.08;;;6.90;;
7961;SDS011;4026;43.652;24.906;2022-07-12T17:13:22;6.85;;;1.80;;
7961;SDS011;4026;43.652;24.906;2022-07-12T17:15:50;3.08;;;1.60;;
7961;SDS011;4026;43.652;24.906;2022-07-12T17:18:17;2.88;;;1.40;;
7961;SDS011;4026;43.652;24.906;2022-07-12T17:20:44;2.22;;;1.30;;
7961;SDS011;4026;43.652;24.906;2022-07-12T17:23:11;3.03;;;1.60;;
7961;SDS011;4026;43.652;24.906;2022-07-12T17:25:38;4.30;;;1.67;;
7961;SDS011;4026;43.652;24.906;2022-07-12T17:28:06;2.72;;;1.42;;
7961;SDS011;4026;43.652;24.906;2022-07-12T17:30:33;4.03;;;1.50;;
7961;SDS011;4026;43.652;24.906;2022-07-12T17:33:01;5.85;;;1.83;;
7961;SDS011;4026;43.652;24.906;2022-07-12T17:35:28;8.07;;;2.65;;
7961;SDS011;4026;43.652;24.906;2022-07-12T17:37:56;3.20;;;1.60;;
7961;SDS011;4026;43.652;24.906;2022-07-12T17:40:23;6.53;;;2.28;;
7961;SDS011;4026;43.652;24.906;2022-07-12T17:42:50;7.60;;;2.15;;
7961;SDS011;4026;43.652;24.906;2022-07-12T17:45:18;3.15;;;1.50;;
7961;SDS011;4026;43.652;24.906;2022-07-12T17:47:45;1.83;;;1.48;;
7961;SDS011;4026;43.652;24.906;2022-07-12T17:50:12;4.60;;;1.88;;
7961;SDS011;4026;43.652;24.906;2022-07-12T17:52:39;3.13;;;1.67;;
7961;SDS011;4026;43.652;24.906;2022-07-12T17:55:08;5.57;;;1.70;;
7961;SDS011;4026;43.652;24.906;2022-07-12T17:57:38;4.28;;;1.65;;
7961;SDS011;4026;43.652;24.906;2022-07-12T18:00:06;3.60;;;1.40;;
7961;SDS011;4026;43.652;24.906;2022-07-12T18:02:36;1.63;;;1.42;;
7961;SDS011;4026;43.652;24.906;2022-07-12T18:05:03;4.72;;;1.63;;
7961;SDS011;4026;43.652;24.906;2022-07-12T18:07:30;3.40;;;1.48;;
7961;SDS011;4026;43.652;24.906;2022-07-12T18:09:57;3.25;;;1.40;;
7961;SDS011;4026;43.652;24.906;2022-07-12T18:12:24;2.42;;;1.55;;
7961;SDS011;4026;43.652;24.906;2022-07-12T18:15:08;4.13;;;1.50;;
7961;SDS011;4026;43.652;24.906;2022-07-12T18:17:37;2.70;;;1.30;;
7961;SDS011;4026;43.652;24.906;2022-07-12T18:20:21;4.57;;;1.60;;
7961;SDS011;4026;43.652;24.906;2022-07-12T18:22:48;7.47;;;1.90;;
7961;SDS011;4026;43.652;24.906;2022-07-12T18:25:15;15.60;;;3.70;;
7961;SDS011;4026;43.652;24.906;2022-07-12T18:27:42;12.70;;;5.13;;
7961;SDS011;4026;43.652;24.906;2022-07-12T18:30:09;18.27;;;7.97;;
7961;SDS011;4026;43.652;24.906;2022-07-12T18:32:39;20.17;;;8.73;;
7961;SDS011;4026;43.652;24.906;2022-07-12T18:35:06;19.20;;;8.70;;
7961;SDS011;4026;43.652;24.906;2022-07-12T18:37:34;16.63;;;8.43;;
7961;SDS011;4026;43.652;24.906;2022-07-12T18:40:02;18.13;;;7.43;;
7961;SDS011;4026;43.652;24.906;2022-07-12T18:42:29;8.97;;;5.03;;
7961;SDS011;4026;43.652;24.906;2022-07-12T18:44:56;11.93;;;4.83;;
7961;SDS011;4026;43.652;24.906;2022-07-12T18:47:23;8.10;;;4.53;;
7961;SDS011;4026;43.652;24.906;2022-07-12T18:49:51;9.57;;;5.50;;
7961;SDS011;4026;43.652;24.906;2022-07-12T18:52:18;8.90;;;5.17;;
7961;SDS011;4026;43.652;24.906;2022-07-12T18:54:46;9.37;;;5.03;;
7961;SDS011;4026;43.652;24.906;2022-07-12T18:57:13;12.97;;;6.40;;
7961;SDS011;4026;43.652;24.906;2022-07-12T18:59:39;10.80;;;7.53;;
7961;SDS011;4026;43.652;24.906;2022-07-12T19:02:06;13.50;;;8.30;;
7961;SDS011;4026;43.652;24.906;2022-07-12T19:04:34;11.73;;;7.77;;
7961;SDS011;4026;43.652;24.906;2022-07-12T19:07:02;11.13;;;6.77;;
7961;SDS011;4026;43.652;24.906;2022-07-12T19:09:29;16.30;;;8.30;;
7961;SDS011;4026;43.652;24.906;2022-07-12T19:11:56;14.93;;;8.00;;
7961;SDS011;4026;43.652;24.906;2022-07-12T19:14:23;16.93;;;8.20;;
7961;SDS011;4026;43.652;24.906;2022-07-12T19:16:50;12.83;;;7.13;;
7961;SDS011;4026;43.652;24.906;2022-07-12T19:19:17;17.50;;;7.93;;
7961;SDS011;4026;43.652;24.906;2022-07-12T19:21:43;10.70;;;5.87;;
7961;SDS011;4026;43.652;24.906;2022-07-12T19:24:12;11.60;;;5.17;;
7961;SDS011;4026;43.652;24.906;2022-07-12T19:26:39;10.40;;;4.57;;
7961;SDS011;4026;43.652;24.906;2022-07-12T19:29:05;8.40;;;3.50;;
7961;SDS011;4026;43.652;24.906;2022-07-12T19:31:34;6.47;;;2.50;;
7961;SDS011;4026;43.652;24.906;2022-07-12T19:34:01;5.53;;;2.20;;
7961;SDS011;4026;43.652;24.906;2022-07-12T19:36:28;3.50;;;2.30;;
7961;SDS011;4026;43.652;24.906;2022-07-12T19:38:54;3.73;;;1.90;;
7961;SDS011;4026;43.652;24.906;2022-07-12T19:41:23;4.60;;;2.00;;
7961;SDS011;4026;43.652;24.906;2022-07-12T19:43:49;2.57;;;2.00;;
7961;SDS011;4026;43.652;24.906;2022-07-12T19:46:16;3.63;;;2.10;;
7961;SDS011;4026;43.652;24.906;2022-07-12T19:48:44;6.90;;;2.30;;
7961;SDS011;4026;43.652;24.906;2022-07-12T19:51:11;6.43;;;2.30;;
7961;SDS011;4026;43.652;24.906;2022-07-12T19:53:39;3.83;;;2.00;;
7961;SDS011;4026;43.652;24.906;2022-07-12T19:56:06;3.63;;;2.07;;
7961;SDS011;4026;43.652;24.906;2022-07-12T19:58:35;3.13;;;1.90;;
7961;SDS011;4026;43.652;24.906;2022-07-12T20:01:01;3.23;;;1.83;;
7961;SDS011;4026;43.652;24.906;2022-07-12T20:03:28;5.90;;;1.87;;
7961;SDS011;4026;43.652;24.906;2022-07-12T20:05:55;2.83;;;1.63;;
7961;SDS011;4026;43.652;24.906;2022-07-12T20:08:22;2.17;;;1.73;;
7961;SDS011;4026;43.652;24.906;2022-07-12T20:10:49;2.10;;;1.60;;
7961;SDS011;4026;43.652;24.906;2022-07-12T20:13:17;7.47;;;1.80;;
7961;SDS011;4026;43.652;24.906;2022-07-12T20:15:45;3.10;;;1.70;;
7961;SDS011;4026;43.652;24.906;2022-07-12T20:18:12;6.10;;;1.80;;
7961;SDS011;4026;43.652;24.906;2022-07-12T20:20:39;3.57;;;1.87;;
7961;SDS011;4026;43.652;24.906;2022-07-12T20:23:06;2.47;;;1.50;;
7961;SDS011;4026;43.652;24.906;2022-07-12T20:25:32;3.70;;;1.63;;
7961;SDS011;4026;43.652;24.906;2022-07-12T20:27:59;5.27;;;1.80;;
7961;SDS011;4026;43.652;24.906;2022-07-12T20:30:27;3.63;;;1.60;;
7961;SDS011;4026;43.652;24.906;2022-07-12T20:32:55;5.33;;;1.77;;
7961;SDS011;4026;43.652;24.906;2022-07-12T20:35:39;3.10;;;1.50;;
7961;SDS011;4026;43.652;24.906;2022-07-12T20:38:06;3.40;;;1.70;;
7961;SDS011;4026;43.652;24.906;2022-07-12T20:40:33;2.07;;;1.30;;
7961;SDS011;4026;43.652;24.906;2022-07-12T20:43:00;2.73;;;1.60;;
7961;SDS011;4026;43.652;24.906;2022-07-12T20:45:27;2.40;;;1.70;;
7961;SDS011;4026;43.652;24.906;2022-07-12T20:47:55;6.70;;;1.50;;
7961;SDS011;4026;43.652;24.906;2022-07-12T20:50:22;1.53;;;1.33;;
7961;SDS011;4026;43.652;24.906;2022-07-12T20:52:49;3.80;;;1.70;;
7961;SDS011;4026;43.652;24.906;2022-07-12T20:55:16;3.30;;;1.60;;
7961;SDS011;4026;43.652;24.906;2022-07-12T20:57:43;1.70;;;1.60;;
7961;SDS011;4026;43.652;24.906;2022-07-12T21:00:10;7.77;;;1.50;;
7961;SDS011;4026;43.652;24.906;2022-07-12T21:02:38;2.63;;;1.53;;
7961;SDS011;4026;43.652;24.906;2022-07-12T21:05:07;9.43;;;1.63;;
7961;SDS011;4026;43.652;24.906;2022-07-12T21:07:35;2.80;;;1.80;;
7961;SDS011;4026;43.652;24.906;2022-07-12T21:10:03;4.63;;;1.50;;
7961;SDS011;4026;43.652;24.906;2022-07-12T21:12:30;4.00;;;1.60;;
7961;SDS011;4026;43.652;24.906;2022-07-12T21:14:57;3.27;;;1.73;;
7961;SDS011;4026;43.652;24.906;2022-07-12T21:17:24;4.10;;;1.80;;
7961;SDS011;4026;43.652;24.906;2022-07-12T21:19:51;1.93;;;1.40;;
7961;SDS011;4026;43.652;24.906;2022-07-12T21:22:19;2.80;;;1.40;;
7961;SDS011;4026;43.652;24.906;2022-07-12T21:24:46;4.83;;;1.40;;
7961;SDS011;4026;43.652;24.906;2022-07-12T21:27:12;2.33;;;1.60;;
7961;SDS011;4026;43.652;24.906;2022-07-12T21:29:39;3.60;;;1.60;;
7961;SDS011;4026;43.652;24.906;2022-07-12T21:32:06;2.73;;;1.50;;
7961;SDS011;4026;43.652;24.906;2022-07-12T21:34:33;2.90;;;1.60;;
7961;SDS011;4026;43.652;24.906;2022-07-12T21:37:00;1.80;;;1.50;;
7961;SDS011;4026;43.652;24.906;2022-07-12T21:39:29;3.40;;;1.60;;
7961;SDS011;4026;43.652;24.906;2022-07-12T21:41:55;2.83;;;1.60;;
7961;SDS011;4026;43.652;24.906;2022-07-12T21:44:22;4.17;;;1.83;;
7961;SDS011;4026;43.652;24.906;2022-07-12T21:46:49;7.23;;;1.60;;
7961;SDS011;4026;43.652;24.906;2022-07-12T21:49:16;4.00;;;1.63;;
7961;SDS011;4026;43.652;24.906;2022-07-12T21:51:43;3.47;;;1.80;;
7961;SDS011;4026;43.652;24.906;2022-07-12T21:54:10;4.97;;;1.67;;
7961;SDS011;4026;43.652;24.906;2022-07-12T21:56:38;3.10;;;1.80;;
7961;SDS011;4026;43.652;24.906;2022-07-12T21:59:05;2.93;;;1.60;;
7961;SDS011;4026;43.652;24.906;2022-07-12T22:01:33;2.57;;;1.70;;
7961;SDS011;4026;43.652;24.906;2022-07-12T22:04:00;3.07;;;1.70;;
7961;SDS011;4026;43.652;24.906;2022-07-12T22:06:27;2.50;;;1.60;;
7961;SDS011;4026;43.652;24.906;2022-07-12T22:08:53;2.87;;;1.83;;
7961;SDS011;4026;43.652;24.906;2022-07-12T22:11:23;3.10;;;1.60;;
7961;SDS011;4026;43.652;24.906;2022-07-12T22:13:51;1.90;;;1.60;;
7961;SDS011;4026;43.652;24.906;2022-07-12T22:16:18;6.50;;;1.63;;
7961;SDS011;4026;43.652;24.906;2022-07-12T22:18:45;5.13;;;1.73;;
7961;SDS011;4026;43.652;24.906;2022-07-12T22:21:12;6.00;;;1.80;;
7961;SDS011;4026;43.652;24.906;2022-07-12T22:23:38;5.27;;;1.70;;
7961;SDS011;4026;43.652;24.906;2022-07-12T22:26:05;3.17;;;1.70;;
7961;SDS011;4026;43.652;24.906;2022-07-12T22:28:32;5.77;;;1.60;;
7961;SDS011;4026;43.652;24.906;2022-07-12T22:31:00;2.60;;;1.67;;
7961;SDS011;4026;43.652;24.906;2022-07-12T22:33:27;7.20;;;1.87;;
7961;SDS011;4026;43.652;24.906;2022-07-12T22:35:54;4.07;;;1.70;;
7961;SDS011;4026;43.652;24.906;2022-07-12T22:38:21;2.93;;;1.70;;
7961;SDS011;4026;43.652;24.906;2022-07-12T22:40:48;4.47;;;1.80;;
7961;SDS011;4026;43.652;24.906;2022-07-12T22:43:14;2.20;;;1.80;;
7961;SDS011;4026;43.652;24.906;2022-07-12T22:45:41;4.47;;;1.80;;
7961;SDS011;4026;43.652;24.906;2022-07-12T22:48:10;3.13;;;1.73;;
7961;SDS011;4026;43.652;24.906;2022-07-12T22:50:36;3.63;;;1.80;;
7961;SDS011;4026;43.652;24.906;2022-07-12T22:53:21;4.43;;;1.70;;
7961;SDS011;4026;43.652;24.906;2022-07-12T22:55:52;5.20;;;1.90;;
7961;SDS011;4026;43.652;24.906;2022-07-12T22:58:19;5.10;;;1.80;;
7961;SDS011;4026;43.652;24.906;2022-07-12T23:00:46;3.00;;;1.80;;
7961;SDS011;4026;43.652;24.906;2022-07-12T23:03:14;2.87;;;1.87;;
7961;SDS011;4026;43.652;24.906;2022-07-12T23:05:41;3.53;;;1.90;;
7961;SDS011;4026;43.652;24.906;2022-07-12T23:08:08;2.73;;;2.00;;
7961;SDS011;4026;43.652;24.906;2022-07-12T23:10:35;3.00;;;1.90;;
7961;SDS011;4026;43.652;24.906;2022-07-12T23:13:02;3.67;;;1.87;;
7961;SDS011;4026;43.652;24.906;2022-07-12T23:15:29;5.87;;;2.30;;
7961;SDS011;4026;43.652;24.906;2022-07-12T23:17:56;3.93;;;2.20;;
7961;SDS011;4026;43.652;24.906;2022-07-12T23:20:24;2.20;;;1.70;;
7961;SDS011;4026;43.652;24.906;2022-07-12T23:22:51;3.53;;;2.07;;
7961;SDS011;4026;43.652;24.906;2022-07-12T23:25:18;6.70;;;1.93;;
7961;SDS011;4026;43.652;24.906;2022-07-12T23:27:45;2.27;;;1.97;;
7961;SDS011;4026;43.652;24.906;2022-07-12T23:30:12;3.23;;;1.90;;
7961;SDS011;4026;43.652;24.906;2022-07-12T23:32:38;2.70;;;2.17;;
7961;SDS011;4026;43.652;24.906;2022-07-12T23:35:05;2.43;;;1.80;;
7961;SDS011;4026;43.652;24.906;2022-07-12T23:37:34;2.67;;;2.03;;
7961;SDS011;4026;43.652;24.906;2022-07-12T23:40:01;3.57;;;1.90;;
7961;SDS011;4026;43.652;24.906;2022-07-12T23:42:28;4.37;;;2.03;;
7961;SDS011;4026;43.652;24.906;2022-07-12T23:44:56;3.87;;;2.20;;
7961;SDS011;4026;43.652;24.906;2022-07-12T23:47:23;5.23;;;1.97;;
7961;SDS011;4026;43.652;24.906;2022-07-12T23:49:49;3.57;;;1.90;;
7961;SDS011;4026;43.652;24.906;2022-07-12T23:52:16;4.17;;;2.00;;
7961;SDS011;4026;43.652;24.906;2022-07-12T23:54:44;4.97;;;2.30;;
7961;SDS011;4026;43.652;24.906;2022-07-12T23:57:11;6.67;;;2.00;;
7961;SDS011;4026;43.652;24.906;2022-07-12T23:59:38;5.23;;;2.17;;
